Higginsport, Ohio
Current Conditions -  °F | °C
As of 2:35 PM on Thursday 27 Nov 2014 (Local Time) from KFGX Reporting Station
Overcast Overcast  
Wind Chill: 23°   Ceiling: 4000
Heat Index: 33°   Visibility: 10mi
Dew Point: 21°   Wind: 16mph
Humidity: 62%   Direction: 290°WNW
Pressure: 30.28"   Gusts: NA
Location:  38.79°N, 83.97°W
Report Text: KFGX 271935Z AUTO 29014KT 10SM SCT034 BKN040 OVC050 01/M06 A3028 RMK AO2 T00061059
Loading
Personal Weather Stations






























Interactive Weather Map New forecast layout! Learn more

10-Day Weather Forecast

Advertisements
Track Severe Weather on mobile